Time;durP1;ratioP1;P1;durP2;ratioP2;P2;SDS_P1;SDS_P2;PMS_P1;PMS_P2;Temp;Humidity;BMP_temperature;BMP_pressure;BME280_temperature;BME280_humidity;BME280_pressure;Samples;Min_cycle;Max_cycle;Signal;HPM_P1;HPM_P2
2023/09/12 00:00:39;;;;;;;6.25;3.53;;;24.40;52.80;;;;;;2520143;54;20925;-66
2023/09/12 00:03:05;;;;;;;5.15;3.47;;;24.30;52.90;;;;;;2284928;55;21009;-67
2023/09/12 00:05:32;;;;;;;4.62;3.05;;;24.30;53.00;;;;;;2289995;55;20945;-67
2023/09/12 00:07:58;;;;;;;7.30;3.05;;;24.30;53.00;;;;;;2521042;54;20942;-68
2023/09/12 00:10:25;;;;;;;4.47;2.78;;;24.20;52.90;;;;;;2520314;54;21665;-70
2023/09/12 00:12:54;;;;;;;4.78;2.95;;;24.20;53.00;;;;;;2287216;55;20974;-67
2023/09/12 00:15:21;;;;;;;4.65;3.05;;;24.20;53.00;;;;;;2288094;55;21018;-69
2023/09/12 00:17:50;;;;;;;4.50;2.97;;;24.10;53.00;;;;;;2291999;55;20915;-69
2023/09/12 00:20:17;;;;;;;4.95;2.83;;;24.10;53.00;;;;;;2520693;54;20991;-67
2023/09/12 00:22:47;;;;;;;4.00;2.62;;;24.10;53.00;;;;;;2520186;54;21037;-68
2023/09/12 00:25:14;;;;;;;4.82;2.83;;;24.10;53.10;;;;;;2284940;55;21001;-68
2023/09/12 00:27:40;;;;;;;4.80;2.90;;;24.00;53.10;;;;;;2520056;54;21740;-68
2023/09/12 00:30:07;;;;;;;5.35;3.00;;;24.00;53.20;;;;;;2285461;55;20957;-67
2023/09/12 00:32:33;;;;;;;6.12;2.90;;;24.00;53.30;;;;;;2519506;54;20998;-70
2023/09/12 00:35:00;;;;;;;4.43;2.70;;;23.90;53.20;;;;;;2286232;55;21748;-67
2023/09/12 00:37:29;;;;;;;4.43;2.90;;;23.90;53.30;;;;;;2519943;54;20957;-67
2023/09/12 00:39:56;;;;;;;4.75;2.70;;;23.90;53.40;;;;;;2519774;54;20939;-67
2023/09/12 00:42:26;;;;;;;5.37;2.78;;;23.80;53.30;;;;;;2516610;54;20981;-68
2023/09/12 00:44:52;;;;;;;5.07;3.15;;;23.80;53.50;;;;;;2519803;54;20957;-67
2023/09/12 00:47:19;;;;;;;5.28;3.10;;;23.80;53.50;;;;;;2285818;55;21049;-67
2023/09/12 00:49:47;;;;;;;4.93;3.05;;;23.80;53.60;;;;;;2285864;55;20985;-69
2023/09/12 00:52:24;;;;;;;4.05;2.87;;;23.80;53.70;;;;;;2285615;55;20962;-67
2023/09/12 00:54:51;;;;;;;4.32;2.72;;;23.70;53.80;;;;;;2521822;54;21318;-67
2023/09/12 00:57:20;;;;;;;4.62;3.12;;;23.70;53.60;;;;;;2290056;55;21769;-67
2023/09/12 00:59:47;;;;;;;5.35;2.90;;;23.70;53.90;;;;;;2287428;55;20950;-67
2023/09/12 01:02:14;;;;;;;5.00;3.05;;;23.70;54.00;;;;;;2285375;55;20962;-69
2023/09/12 01:04:40;;;;;;;4.97;2.90;;;23.60;53.90;;;;;;2285954;55;21756;-67
2023/09/12 01:07:07;;;;;;;5.15;2.75;;;23.60;53.90;;;;;;2519318;54;21799;-70
2023/09/12 01:09:33;;;;;;;5.03;2.80;;;23.70;54.10;;;;;;2285928;55;20953;-68
2023/09/12 01:12:02;;;;;;;4.97;2.65;;;23.60;54.00;;;;;;2520240;54;21041;-66
2023/09/12 01:14:29;;;;;;;4.93;3.05;;;23.60;54.00;;;;;;2520482;54;20990;-67
2023/09/12 01:16:56;;;;;;;3.92;2.62;;;23.60;54.10;;;;;;2285455;55;21426;-68
2023/09/12 01:19:23;;;;;;;4.15;2.70;;;23.60;54.20;;;;;;2519563;54;20969;-68
2023/09/12 01:23:42;;;;;;;7.05;3.40;;;23.60;54.20;;;;;;2285696;55;21354;-67
2023/09/12 01:26:24;;;;;;;3.97;2.70;;;23.60;54.70;;;;;;2519531;54;21795;-68
2023/09/12 01:28:50;;;;;;;5.45;2.80;;;23.60;54.40;;;;;;2285822;55;21492;-68
2023/09/12 01:31:17;;;;;;;5.30;2.95;;;23.60;54.10;;;;;;2517643;54;21117;-68
2023/09/12 01:33:45;;;;;;;5.15;2.97;;;23.50;54.10;;;;;;2517908;54;20986;-68
2023/09/12 01:36:11;;;;;;;4.95;3.00;;;23.60;54.20;;;;;;2290722;55;21051;-67
2023/09/12 01:38:38;;;;;;;3.80;2.70;;;23.50;54.20;;;;;;2286064;55;20945;-70
2023/09/12 01:41:04;;;;;;;4.70;3.35;;;23.50;54.80;;;;;;2518463;54;21044;-66
2023/09/12 01:43:30;;;;;;;6.15;3.20;;;23.50;54.30;;;;;;2519354;54;20990;-68
2023/09/12 01:45:59;;;;;;;4.90;3.00;;;23.50;54.40;;;;;;2285504;55;21002;-67
2023/09/12 01:48:30;;;;;;;4.87;2.60;;;23.40;54.30;;;;;;2291094;55;20940;-67
2023/09/12 01:50:56;;;;;;;4.57;2.95;;;23.40;54.30;;;;;;2519503;54;21065;-69
2023/09/12 01:53:23;;;;;;;3.87;2.53;;;23.40;54.30;;;;;;2517755;54;21025;-69
2023/09/12 01:55:50;;;;;;;4.40;3.00;;;23.40;54.30;;;;;;2510880;54;21545;-67
2023/09/12 01:58:17;;;;;;;6.12;3.40;;;23.40;54.40;;;;;;2279428;55;20950;-68
2023/09/12 02:00:43;;;;;;;5.12;3.25;;;23.30;54.40;;;;;;2278292;55;21801;-68
2023/09/12 02:03:09;;;;;;;4.57;3.10;;;23.30;54.50;;;;;;2511412;54;21005;-70
2023/09/12 02:05:37;;;;;;;4.62;2.90;;;23.30;54.60;;;;;;2511544;54;20954;-66
2023/09/12 02:08:04;;;;;;;4.57;3.08;;;23.30;54.60;;;;;;2277777;55;20988;-69
2023/09/12 02:10:33;;;;;;;5.30;2.97;;;23.20;54.60;;;;;;2276076;55;20942;-70
2023/09/12 02:12:59;;;;;;;4.87;2.70;;;23.20;54.60;;;;;;2507351;54;20942;-70
2023/09/12 02:15:25;;;;;;;4.07;2.60;;;23.20;54.60;;;;;;2507926;54;22119;-68
2023/09/12 02:17:52;;;;;;;4.65;3.30;;;23.20;54.70;;;;;;2279462;55;22017;-66
2023/09/12 02:20:19;;;;;;;5.12;3.28;;;23.20;54.80;;;;;;2278343;55;21523;-67
2023/09/12 02:22:45;;;;;;;5.10;2.83;;;23.20;54.90;;;;;;2509438;54;21589;-68
2023/09/12 02:25:12;;;;;;;4.32;2.87;;;23.20;55.00;;;;;;2504752;54;21585;-65
2023/09/12 02:27:41;;;;;;;4.50;2.90;;;23.20;55.00;;;;;;2275033;55;21009;-67
2023/09/12 02:30:09;;;;;;;5.18;3.28;;;23.10;55.00;;;;;;2274196;55;20952;-67
2023/09/12 02:32:35;;;;;;;4.82;2.70;;;23.10;55.00;;;;;;2505802;54;21648;-68
2023/09/12 02:35:02;;;;;;;5.35;3.25;;;23.10;55.10;;;;;;2507180;54;21515;-66
2023/09/12 02:37:29;;;;;;;6.50;3.92;;;23.10;55.10;;;;;;2508413;54;20911;-68
2023/09/12 02:39:55;;;;;;;4.03;2.65;;;23.10;55.10;;;;;;2507304;54;20934;-68
2023/09/12 02:42:28;;;;;;;4.82;3.00;;;23.10;55.10;;;;;;2509199;54;22095;-67
2023/09/12 02:44:55;;;;;;;5.45;3.00;;;23.10;55.40;;;;;;2506075;54;20953;-68
2023/09/12 02:47:21;;;;;;;7.62;3.37;;;23.10;55.30;;;;;;2506252;54;21514;-67
2023/09/12 02:49:48;;;;;;;6.62;2.80;;;23.00;55.40;;;;;;2511651;54;21006;-71
2023/09/12 02:52:14;;;;;;;5.85;3.50;;;23.00;55.40;;;;;;2511897;54;21393;-68
2023/09/12 02:54:40;;;;;;;4.37;2.90;;;23.00;55.50;;;;;;2509756;54;21057;-71
2023/09/12 02:57:14;;;;;;;4.62;3.00;;;23.00;55.60;;;;;;2275062;55;20962;-69
2023/09/12 02:59:40;;;;;;;4.87;3.12;;;23.00;55.60;;;;;;2508154;54;20997;-66
2023/09/12 03:02:12;;;;;;;4.87;3.53;;;23.00;55.60;;;;;;2281179;55;20955;-69
2023/09/12 03:04:38;;;;;;;6.35;3.75;;;23.00;55.70;;;;;;2511345;54;20942;-67
2023/09/12 03:07:05;;;;;;;5.43;2.70;;;23.00;55.80;;;;;;2508672;54;21403;-68
2023/09/12 03:09:32;;;;;;;4.53;3.20;;;23.10;55.90;;;;;;2277666;55;21834;-67
2023/09/12 03:12:02;;;;;;;4.20;2.92;;;23.10;55.80;;;;;;2277282;55;22294;-68
2023/09/12 03:14:29;;;;;;;4.00;2.65;;;23.10;55.90;;;;;;2277925;55;21725;-68
2023/09/12 03:16:55;;;;;;;4.00;2.75;;;23.10;55.80;;;;;;2274561;55;21521;-69
2023/09/12 03:19:25;;;;;;;4.62;2.92;;;23.10;55.80;;;;;;2505122;54;21845;-70
2023/09/12 03:21:53;;;;;;;3.60;2.33;;;23.10;55.90;;;;;;2272764;55;21704;-67
2023/09/12 03:24:21;;;;;;;6.55;3.17;;;23.10;55.80;;;;;;2278838;55;20999;-68
2023/09/12 03:26:48;;;;;;;4.28;2.80;;;23.10;55.80;;;;;;2507132;54;20981;-68
2023/09/12 03:29:14;;;;;;;5.25;2.72;;;23.10;55.80;;;;;;2505433;54;20973;-68
2023/09/12 03:31:42;;;;;;;6.25;3.00;;;23.10;55.80;;;;;;2273349;55;21939;-68
2023/09/12 03:34:09;;;;;;;4.00;2.78;;;23.10;55.90;;;;;;2499427;54;21057;-69
2023/09/12 03:36:35;;;;;;;4.45;2.58;;;23.10;55.80;;;;;;2478765;54;20961;-70
2023/09/12 03:39:05;;;;;;;5.10;3.10;;;23.20;55.90;;;;;;2497762;54;21657;-68
2023/09/12 03:41:34;;;;;;;6.28;3.40;;;23.10;55.90;;;;;;2277098;55;21661;-67
2023/09/12 03:44:01;;;;;;;5.07;3.17;;;23.10;56.00;;;;;;2263598;55;20950;-69
2023/09/12 03:46:29;;;;;;;5.00;3.50;;;23.10;55.90;;;;;;2274003;55;21041;-69
2023/09/12 03:48:55;;;;;;;4.55;2.87;;;23.10;56.00;;;;;;2277607;55;20934;-68
2023/09/12 03:51:22;;;;;;;5.20;3.33;;;23.10;56.00;;;;;;2277635;55;22209;-66
2023/09/12 03:53:49;;;;;;;4.95;3.08;;;23.20;56.00;;;;;;2510508;54;21729;-70
2023/09/12 03:56:19;;;;;;;6.62;3.60;;;23.10;56.00;;;;;;2513014;54;21022;-70
2023/09/12 03:58:46;;;;;;;5.60;3.37;;;23.20;56.20;;;;;;2280582;55;21017;-69
2023/09/12 04:01:13;;;;;;;5.50;3.30;;;23.10;56.20;;;;;;2286192;55;20956;-68
2023/09/12 04:03:40;;;;;;;4.45;3.10;;;23.20;56.20;;;;;;2277990;55;20961;-68
2023/09/12 04:06:06;;;;;;;6.50;3.25;;;23.10;56.10;;;;;;2508766;54;20966;-67
2023/09/12 04:08:33;;;;;;;5.68;2.87;;;23.10;56.10;;;;;;2507453;54;20953;-69
2023/09/12 04:11:00;;;;;;;6.22;2.97;;;23.10;56.00;;;;;;2278032;55;21595;-70
2023/09/12 04:13:26;;;;;;;4.43;2.67;;;23.10;56.00;;;;;;2273248;55;21724;-68
2023/09/12 04:15:53;;;;;;;6.00;3.33;;;23.10;55.90;;;;;;2272354;55;20933;-68
2023/09/12 04:18:19;;;;;;;5.35;3.28;;;23.10;55.90;;;;;;2276598;55;21026;-68
2023/09/12 04:20:45;;;;;;;5.28;3.15;;;23.10;56.00;;;;;;2509163;54;20982;-67
2023/09/12 04:23:15;;;;;;;4.43;3.10;;;23.10;56.00;;;;;;2508667;54;21916;-67
2023/09/12 04:25:46;;;;;;;5.65;3.20;;;23.00;56.00;;;;;;2274500;55;22003;-69
2023/09/12 04:28:12;;;;;;;7.80;3.15;;;23.00;56.70;;;;;;2273235;55;20965;-67
2023/09/12 04:30:39;;;;;;;4.43;2.87;;;23.00;56.20;;;;;;2505435;54;20950;-69
2023/09/12 04:33:07;;;;;;;5.05;3.17;;;23.00;56.20;;;;;;2273032;55;20970;-70
2023/09/12 04:35:34;;;;;;;5.03;2.90;;;23.00;56.20;;;;;;2273098;55;21523;-69
2023/09/12 04:38:00;;;;;;;5.07;3.20;;;22.90;56.00;;;;;;2505714;54;21030;-67
2023/09/12 04:40:27;;;;;;;5.20;3.35;;;22.90;56.10;;;;;;2509134;54;21081;-67
2023/09/12 04:42:53;;;;;;;4.37;3.05;;;22.90;56.20;;;;;;2510829;54;20944;-69
2023/09/12 04:45:20;;;;;;;4.78;3.17;;;22.80;56.10;;;;;;2277125;55;21017;-67
2023/09/12 04:47:46;;;;;;;4.28;3.05;;;22.80;56.10;;;;;;2273390;55;21974;-70
2023/09/12 04:50:13;;;;;;;6.32;3.25;;;22.90;56.20;;;;;;2272923;55;21332;-67
2023/09/12 04:52:41;;;;;;;5.43;3.70;;;22.80;56.20;;;;;;2273369;55;21861;-70
2023/09/12 04:55:08;;;;;;;5.15;3.40;;;22.80;56.20;;;;;;2507092;54;22018;-71
2023/09/12 04:57:35;;;;;;;9.93;3.42;;;22.70;56.20;;;;;;2279534;55;20920;-68
2023/09/12 05:00:02;;;;;;;6.05;3.60;;;22.70;56.20;;;;;;2507886;54;20961;-67
2023/09/12 05:02:29;;;;;;;5.07;3.37;;;22.70;56.20;;;;;;2269627;55;21472;-68
2023/09/12 05:04:55;;;;;;;5.37;3.45;;;22.70;56.20;;;;;;2269964;55;20997;-67
2023/09/12 05:07:22;;;;;;;6.95;2.95;;;22.70;56.20;;;;;;2273204;55;21764;-67
2023/09/12 05:09:48;;;;;;;7.03;3.40;;;22.70;56.10;;;;;;2501861;54;20937;-70
2023/09/12 05:12:16;;;;;;;5.55;3.53;;;22.60;56.10;;;;;;2501017;54;21001;-67
2023/09/12 05:14:49;;;;;;;5.37;3.50;;;22.60;56.30;;;;;;2501721;54;21870;-66
2023/09/12 05:17:16;;;;;;;5.05;3.70;;;22.60;56.50;;;;;;2268678;55;21615;-67
2023/09/12 05:19:42;;;;;;;4.57;3.10;;;22.60;56.50;;;;;;2502244;54;21723;-66
2023/09/12 05:22:09;;;;;;;4.90;3.42;;;22.50;56.50;;;;;;2501212;54;20973;-71
2023/09/12 05:24:35;;;;;;;4.72;2.87;;;22.50;56.50;;;;;;2505677;54;21593;-69
2023/09/12 05:27:05;;;;;;;5.10;3.30;;;22.50;56.50;;;;;;2504045;54;21727;-66
2023/09/12 05:29:33;;;;;;;4.95;2.87;;;22.50;56.50;;;;;;2267335;55;20974;-68
2023/09/12 05:31:59;;;;;;;4.40;3.05;;;22.50;56.60;;;;;;2268251;55;20981;-70
2023/09/12 05:34:26;;;;;;;4.25;2.95;;;22.50;56.60;;;;;;2478625;54;21045;-67
2023/09/12 05:36:56;;;;;;;4.93;2.95;;;22.50;56.70;;;;;;2484351;54;21995;-65
2023/09/12 05:39:24;;;;;;;3.97;3.00;;;22.50;56.90;;;;;;2249494;55;21592;-65
2023/09/12 05:41:53;;;;;;;4.93;2.65;;;22.50;56.90;;;;;;2252584;55;21000;-66
2023/09/12 05:44:21;;;;;;;4.05;2.80;;;22.50;56.90;;;;;;2474448;54;21042;-67
2023/09/12 05:46:49;;;;;;;4.82;3.35;;;22.50;57.00;;;;;;2466141;54;21068;-69
2023/09/12 05:49:15;;;;;;;6.57;3.90;;;22.50;57.10;;;;;;2248632;55;22016;-68
2023/09/12 05:51:45;;;;;;;5.45;3.33;;;22.50;57.20;;;;;;2462097;54;21679;-66
2023/09/12 05:54:15;;;;;;;7.70;3.72;;;22.50;57.30;;;;;;2455585;54;22166;-66
2023/09/12 05:56:47;;;;;;;5.60;3.60;;;22.50;57.30;;;;;;2448363;54;21695;-65
2023/09/12 05:59:17;;;;;;;;;;;22.50;57.40;;;;;;2462483;54;22976;-64
2023/09/12 06:01:46;;;;;;;4.62;3.20;;;22.50;57.40;;;;;;2453020;54;20077;-65
2023/09/12 06:04:17;;;;;;;7.00;4.60;;;22.60;57.50;;;;;;2249532;55;21693;-65
2023/09/12 06:06:46;;;;;;;7.15;4.50;;;22.60;57.60;;;;;;2478666;54;21735;-65
2023/09/12 06:09:14;;;;;;;6.07;3.55;;;22.60;57.70;;;;;;2249161;55;21182;-66
2023/09/12 06:11:41;;;;;;;5.05;3.55;;;22.60;57.70;;;;;;2250330;55;21818;-66
2023/09/12 06:14:07;;;;;;;4.57;3.37;;;22.70;57.70;;;;;;2249900;55;20961;-68
2023/09/12 06:16:35;;;;;;;6.47;3.60;;;22.70;57.70;;;;;;2256573;55;20965;-65
2023/09/12 06:19:01;;;;;;;4.78;3.20;;;22.70;57.80;;;;;;2494610;54;20950;-68
2023/09/12 06:21:31;;;;;;;5.78;3.97;;;22.70;57.70;;;;;;2483833;54;20978;-67
2023/09/12 06:24:16;;;;;;;6.15;3.97;;;22.80;57.80;;;;;;2490032;54;21499;-65
2023/09/12 06:26:43;;;;;;;;;;;22.80;58.20;;;;;;2254701;55;21019;-68
2023/09/12 06:29:14;;;;;;;5.72;3.58;;;22.90;58.00;;;;;;2259007;55;20177;-67
2023/09/12 06:31:45;;;;;;;4.97;3.55;;;22.90;57.70;;;;;;2256001;55;22291;-65
2023/09/12 06:34:11;;;;;;;4.65;3.15;;;23.00;58.00;;;;;;2493015;54;20975;-67
2023/09/12 06:36:41;;;;;;;6.15;3.50;;;23.00;58.00;;;;;;2493800;54;21081;-65
2023/09/12 06:39:09;;;;;;;6.20;3.70;;;23.10;58.10;;;;;;2257523;55;21004;-66
2023/09/12 06:41:39;;;;;;;7.18;3.47;;;23.10;58.10;;;;;;2488559;54;20989;-66
2023/09/12 06:44:06;;;;;;;5.45;3.85;;;23.20;58.30;;;;;;2487143;54;20986;-69
2023/09/12 06:46:37;;;;;;;6.45;3.70;;;23.20;58.30;;;;;;2261460;55;22314;-64
2023/09/12 06:49:04;;;;;;;4.97;3.17;;;23.30;58.60;;;;;;2259431;55;21624;-65
2023/09/12 06:51:31;;;;;;;5.80;3.85;;;23.40;58.60;;;;;;2501596;54;21026;-67
2023/09/12 06:53:59;;;;;;;5.43;3.70;;;23.40;58.60;;;;;;2482655;54;21395;-67
2023/09/12 06:56:27;;;;;;;5.78;3.53;;;23.50;58.60;;;;;;2257457;55;21065;-67
2023/09/12 06:58:55;;;;;;;6.12;3.90;;;23.60;58.60;;;;;;2483413;54;20974;-67
2023/09/12 07:01:22;;;;;;;9.38;3.72;;;23.70;58.70;;;;;;2261723;55;21580;-66
2023/09/12 07:03:53;;;;;;;5.37;3.25;;;23.70;58.60;;;;;;2485273;54;20950;-67
2023/09/12 07:06:25;;;;;;;6.12;3.60;;;23.80;58.70;;;;;;2250753;55;20982;-66
2023/09/12 07:08:51;;;;;;;4.55;3.25;;;23.90;58.80;;;;;;2254589;55;21021;-69
2023/09/12 07:11:19;;;;;;;5.72;3.70;;;24.00;58.80;;;;;;2481852;54;21451;-66
2023/09/12 07:13:46;;;;;;;5.97;3.35;;;24.10;58.80;;;;;;2242435;55;21765;-64
2023/09/12 07:16:14;;;;;;;4.78;3.28;;;24.10;58.70;;;;;;2248053;55;20941;-66
2023/09/12 07:18:40;;;;;;;5.10;3.30;;;24.10;58.70;;;;;;2244070;55;20981;-69
2023/09/12 07:21:07;;;;;;;5.50;3.45;;;24.30;58.80;;;;;;2233925;55;21045;-69
2023/09/12 07:23:35;;;;;;;6.18;3.75;;;24.40;58.80;;;;;;2252470;55;22271;-65
2023/09/12 07:26:04;;;;;;;5.15;3.55;;;24.50;58.90;;;;;;2469751;54;21497;-68
2023/09/12 07:28:32;;;;;;;4.95;3.58;;;24.60;58.90;;;;;;2244749;55;21056;-66
2023/09/12 07:31:05;;;;;;;4.70;3.25;;;24.70;58.90;;;;;;2471434;54;21220;-68
2023/09/12 07:33:33;;;;;;;5.10;3.75;;;24.80;59.00;;;;;;2247194;55;21488;-68
2023/09/12 07:36:02;;;;;;;5.85;3.65;;;24.90;59.00;;;;;;2466067;54;21001;-69
2023/09/12 07:38:30;;;;;;;5.65;3.75;;;25.00;59.00;;;;;;2466629;54;21029;-70
2023/09/12 07:40:57;;;;;;;6.50;4.10;;;25.10;59.00;;;;;;2228154;55;20970;-68
2023/09/12 07:43:25;;;;;;;6.40;4.22;;;25.10;58.90;;;;;;2467120;54;20980;-65
2023/09/12 07:45:57;;;;;;;5.78;4.28;;;25.30;59.60;;;;;;2454785;54;21002;-67
2023/09/12 07:48:27;;;;;;;5.72;3.85;;;25.40;59.10;;;;;;2225039;55;21438;-66
2023/09/12 07:50:55;;;;;;;7.22;4.30;;;25.50;59.10;;;;;;2249981;55;21736;-66
2023/09/12 07:53:22;;;;;;;5.93;4.00;;;25.60;58.90;;;;;;2245781;55;20953;-69
2023/09/12 07:55:50;;;;;;;6.37;3.60;;;25.70;58.90;;;;;;2479303;54;21483;-67
2023/09/12 07:58:21;;;;;;;7.20;3.70;;;25.80;59.00;;;;;;2467128;54;21447;-68
2023/09/12 08:00:47;;;;;;;5.07;3.60;;;25.90;58.90;;;;;;2240826;55;21064;-69
2023/09/12 08:03:15;;;;;;;5.22;3.50;;;26.00;58.80;;;;;;2239151;55;22016;-65
2023/09/12 08:05:58;;;;;;;4.68;3.50;;;26.10;58.70;;;;;;2224892;55;22413;-65
2023/09/12 08:08:27;;;;;;;5.75;3.87;;;26.20;58.90;;;;;;2216362;55;22218;-66
2023/09/12 08:11:01;;;;;;;6.95;3.70;;;26.30;58.50;;;;;;2425707;54;21043;-66
2023/09/12 08:13:29;;;;;;;5.15;3.80;;;26.40;58.30;;;;;;2206562;54;21107;-65
2023/09/12 08:15:59;;;;;;;5.12;3.40;;;26.40;58.10;;;;;;2430630;54;21781;-66
2023/09/12 08:18:29;;;;;;;5.87;3.72;;;26.50;58.00;;;;;;2206141;55;21096;-67
2023/09/12 08:20:59;;;;;;;5.62;3.40;;;26.60;57.90;;;;;;2421965;54;22459;-66
2023/09/12 08:23:26;;;;;;;5.18;3.50;;;26.70;57.90;;;;;;2205214;55;21683;-66
2023/09/12 08:25:52;;;;;;;5.80;3.83;;;26.70;57.80;;;;;;2185023;55;20972;-72
2023/09/12 08:28:19;;;;;;;8.55;3.72;;;26.80;57.80;;;;;;2424004;54;21436;-66
2023/09/12 08:30:49;;;;;;;12.25;3.95;;;26.80;57.70;;;;;;2414707;54;22250;-66
2023/09/12 08:33:23;;;;;;;6.75;4.57;;;26.90;57.80;;;;;;2392954;54;22119;-66
2023/09/12 08:35:53;;;;;;;7.85;5.30;;;26.90;57.80;;;;;;2427852;54;20973;-69
2023/09/12 08:38:24;;;;;;;6.00;4.68;;;27.00;57.70;;;;;;2395817;54;21772;-66
2023/09/12 08:40:52;;;;;;;6.50;4.93;;;27.00;57.80;;;;;;2418917;54;21942;-67
2023/09/12 08:43:28;;;;;;;6.57;4.87;;;27.10;57.80;;;;;;2413030;54;21468;-66
2023/09/12 08:46:02;;;;;;;9.05;4.60;;;27.10;57.80;;;;;;2413101;54;21865;-66
2023/09/12 08:48:32;;;;;;;8.27;5.43;;;27.10;57.60;;;;;;2186173;55;21743;-67
2023/09/12 08:51:04;;;;;;;7.82;5.20;;;27.10;57.60;;;;;;2181175;55;21828;-66
2023/09/12 08:53:44;;;;;;;6.70;5.00;;;27.20;57.50;;;;;;2394008;54;21653;-65
2023/09/12 08:56:16;;;;;;;10.48;5.53;;;27.10;57.20;;;;;;2403509;54;22184;-65
2023/09/12 08:58:54;;;;;;;7.95;4.87;;;27.20;57.20;;;;;;2174488;55;22097;-66
2023/09/12 09:01:21;;;;;;;;;;;27.20;57.20;;;;;;2199138;55;21866;-65
2023/09/12 09:03:52;;;;;;;6.53;4.37;;;27.30;57.20;;;;;;2433491;54;20568;-66
2023/09/12 09:06:21;;;;;;;6.22;4.25;;;27.20;57.00;;;;;;2431100;54;21819;-65
2023/09/12 09:08:52;;;;;;;7.28;4.57;;;27.40;57.20;;;;;;2223782;55;21799;-66
2023/09/12 09:11:27;;;;;;;7.00;4.70;;;27.40;57.10;;;;;;2236455;55;20999;-67
2023/09/12 09:14:02;;;;;;;7.43;4.87;;;27.40;57.30;;;;;;2248268;55;21567;-66
2023/09/12 09:16:30;;;;;;;6.28;4.70;;;27.50;57.20;;;;;;2250562;55;21758;-65
2023/09/12 09:19:03;;;;;;;7.07;4.62;;;27.60;57.20;;;;;;2480248;54;21202;-69
2023/09/12 09:21:31;;;;;;;5.60;4.32;;;27.60;57.20;;;;;;2265689;55;22163;-67
2023/09/12 09:24:10;;;;;;;7.62;5.18;;;27.70;57.10;;;;;;2272484;55;21005;-68
2023/09/12 09:26:50;;;;;;;8.93;4.40;;;27.70;56.90;;;;;;2274947;55;21450;-68
2023/09/12 09:29:17;;;;;;;8.18;4.72;;;27.80;56.80;;;;;;2509653;54;20981;-69
2023/09/12 09:31:44;;;;;;;5.57;4.30;;;27.90;56.60;;;;;;2278574;55;20958;-66
2023/09/12 09:34:15;;;;;;;5.25;4.10;;;27.90;56.50;;;;;;2515416;54;21025;-68
2023/09/12 09:36:52;;;;;;;8.60;3.80;;;28.00;56.20;;;;;;2279785;55;20962;-68
2023/09/12 09:39:19;;;;;;;6.35;4.72;;;28.10;56.20;;;;;;2516557;54;21072;-67
2023/09/12 09:41:49;;;;;;;5.35;4.30;;;28.20;55.90;;;;;;2282044;55;20958;-69
2023/09/12 09:44:15;;;;;;;6.15;4.18;;;28.20;55.60;;;;;;2516091;54;20965;-68
2023/09/12 09:46:45;;;;;;;9.40;4.80;;;28.30;55.60;;;;;;2514821;54;20978;-67
2023/09/12 09:49:14;;;;;;;6.55;4.30;;;28.40;55.30;;;;;;2287692;55;20992;-67
2023/09/12 09:51:44;;;;;;;5.62;4.30;;;28.50;55.20;;;;;;2519338;54;20974;-67
2023/09/12 09:54:12;;;;;;;6.80;4.43;;;28.60;55.10;;;;;;2284230;55;20942;-67
2023/09/12 09:56:54;;;;;;;6.03;4.10;;;28.60;54.80;;;;;;2284937;55;21030;-66
2023/09/12 09:59:26;;;;;;;7.35;4.07;;;28.70;54.80;;;;;;2284964;55;21028;-69
2023/09/12 10:01:59;;;;;;;5.57;3.90;;;28.80;54.70;;;;;;2284238;55;21009;-68
2023/09/12 10:04:27;;;;;;;5.12;3.30;;;28.90;53.90;;;;;;2284185;55;21890;-67
2023/09/12 10:06:55;;;;;;;18.52;7.50;;;28.90;54.10;;;;;;2284289;55;20989;-69
2023/09/12 10:09:22;;;;;;;6.97;4.40;;;29.00;53.90;;;;;;2520566;54;21011;-68
2023/09/12 10:11:48;;;;;;;5.62;3.60;;;29.00;53.60;;;;;;2285748;55;20991;-67
2023/09/12 10:14:15;;;;;;;6.55;3.37;;;29.00;53.30;;;;;;2514775;54;21518;-68
2023/09/12 10:16:47;;;;;;;4.32;3.25;;;29.10;53.20;;;;;;2278930;55;20942;-68
2023/09/12 10:19:21;;;;;;;;;;;29.20;53.10;;;;;;2513798;54;21050;-70
2023/09/12 10:22:24;;;;;;;4.75;3.40;;;29.30;52.90;;;;;;2283245;55;20072;-67
2023/09/12 10:24:50;;;;;;;5.10;3.25;;;29.30;51.90;;;;;;2275099;55;21623;-68
2023/09/12 10:27:18;;;;;;;5.93;3.67;;;29.40;52.50;;;;;;2505944;54;21563;-68
2023/09/12 10:29:47;;;;;;;4.72;3.20;;;29.50;52.30;;;;;;2500891;54;20958;-68
2023/09/12 10:32:14;;;;;;;4.32;3.12;;;29.60;52.20;;;;;;2263762;55;21396;-69
2023/09/12 10:34:44;;;;;;;3.90;2.80;;;29.60;51.90;;;;;;2498072;54;20942;-68
2023/09/12 10:37:15;;;;;;;3.80;2.75;;;29.70;51.80;;;;;;2264059;55;20953;-67
2023/09/12 10:39:43;;;;;;;4.80;3.20;;;29.80;51.60;;;;;;2267902;55;20970;-69
2023/09/12 10:42:09;;;;;;;4.47;2.92;;;29.80;50.90;;;;;;2269438;55;20969;-68
2023/09/12 10:44:36;;;;;;;4.22;2.90;;;29.90;50.50;;;;;;2268676;55;21021;-68
2023/09/12 10:47:03;;;;;;;5.20;2.83;;;30.00;50.30;;;;;;2270483;55;21408;-69
2023/09/12 10:49:32;;;;;;;4.72;3.30;;;30.20;50.50;;;;;;2271811;55;20985;-69
2023/09/12 10:51:58;;;;;;;3.87;2.85;;;30.30;50.30;;;;;;2265497;55;21005;-67
2023/09/12 10:54:37;;;;;;;4.30;3.05;;;30.30;50.10;;;;;;2504817;54;20946;-68
2023/09/12 10:57:16;;;;;;;3.67;2.55;;;30.40;49.50;;;;;;2498482;54;20973;-67
2023/09/12 11:06:32;;;;;;;4.20;2.80;;;30.60;49.00;;;;;;2267007;55;21013;-67
2023/09/12 11:11:36;;;;;;;3.28;2.10;;;30.90;49.40;;;;;;2488949;54;20989;-67
2023/09/12 11:14:08;;;;;;;3.60;2.12;;;31.10;48.90;;;;;;2251680;55;21009;-67
2023/09/12 11:16:35;;;;;;;3.83;2.33;;;31.10;48.60;;;;;;2256585;55;21763;-68
2023/09/12 11:19:26;;;;;;;5.07;2.87;;;31.20;48.60;;;;;;2257235;55;20980;-69
2023/09/12 11:21:55;;;;;;;3.58;2.10;;;31.30;47.90;;;;;;2254044;55;21589;-66
2023/09/12 11:24:22;;;;;;;3.42;2.15;;;31.40;48.20;;;;;;2245686;55;21042;-69
2023/09/12 11:27:02;;;;;;;4.10;2.30;;;31.50;47.60;;;;;;2250819;55;21065;-66
2023/09/12 11:29:30;;;;;;;3.72;2.40;;;31.60;45.80;;;;;;2474799;54;20966;-67
2023/09/12 11:31:58;;;;;;;3.70;2.30;;;31.60;46.90;;;;;;2249913;55;20962;-69
2023/09/12 11:34:29;;;;;;;3.40;2.30;;;31.70;46.40;;;;;;2472078;54;20989;-66
2023/09/12 11:37:00;;;;;;;3.87;2.43;;;31.80;46.10;;;;;;2243899;55;21935;-66
2023/09/12 11:39:31;;;;;;;4.10;2.50;;;31.90;45.50;;;;;;2479480;54;21578;-67
2023/09/12 11:41:59;;;;;;;4.07;2.17;;;32.00;45.10;;;;;;2246076;55;21845;-66
2023/09/12 11:44:26;;;;;;;4.30;2.80;;;32.10;45.00;;;;;;2252121;55;20990;-67
2023/09/12 11:47:02;;;;;;;3.92;2.40;;;32.20;44.60;;;;;;2478422;54;20981;-67
2023/09/12 11:49:49;;;;;;;3.60;2.28;;;32.30;44.50;;;;;;2472618;54;23239;-66
2023/09/12 11:52:21;;;;;;;3.00;2.08;;;32.40;43.40;;;;;;2249700;55;20989;-67
2023/09/12 11:54:49;;;;;;;4.30;2.72;;;32.40;44.30;;;;;;2247820;55;21882;-66
2023/09/12 11:57:16;;;;;;;4.00;2.67;;;32.50;44.20;;;;;;2246518;55;21884;-67
2023/09/12 11:59:46;;;;;;;3.62;2.20;;;32.60;44.10;;;;;;2212081;55;21071;-68
2023/09/12 12:02:13;;;;;;;3.67;2.37;;;32.60;43.90;;;;;;2408071;54;21029;-67
2023/09/12 12:04:40;;;;;;;4.62;2.12;;;32.70;43.70;;;;;;2396108;54;22531;-66
2023/09/12 12:07:06;;;;;;;4.37;2.40;;;32.70;43.20;;;;;;2189689;55;21015;-68
2023/09/12 12:09:35;;;;;;;3.90;2.42;;;32.80;42.80;;;;;;2403769;54;21129;-67
2023/09/12 12:12:15;;;;;;;3.42;2.40;;;32.90;42.80;;;;;;2389597;54;22521;-67
2023/09/12 12:14:41;;;;;;;3.92;2.28;;;32.90;42.30;;;;;;2399700;54;21420;-66
2023/09/12 12:17:11;;;;;;;4.20;2.50;;;33.00;42.90;;;;;;2186924;55;21021;-68
2023/09/12 12:32:54;;;;;;;4.47;3.10;;;33.00;42.70;;;;;;2286736;58;22939;-69
2023/09/12 12:35:21;;;;;;;4.53;3.17;;;33.40;40.40;;;;;;2104588;59;21747;-66
2023/09/12 12:37:57;;;;;;;4.37;2.70;;;33.40;40.40;;;;;;2087155;60;20998;-68
2023/09/12 12:40:28;;;;;;;4.30;2.30;;;33.50;40.20;;;;;;2082675;60;21000;-70
2023/09/12 12:42:59;;;;;;;4.50;2.20;;;33.60;40.50;;;;;;2305902;58;21079;-69
2023/09/12 12:45:26;;;;;;;3.92;2.30;;;33.60;40.20;;;;;;2291039;58;21064;-66
2023/09/12 12:47:57;;;;;;;4.50;2.60;;;33.60;40.00;;;;;;2292487;58;21141;-67
2023/09/12 12:50:24;;;;;;;3.90;2.37;;;33.70;40.80;;;;;;2279583;58;21725;-68
2023/09/12 12:52:53;;;;;;;4.65;2.33;;;33.70;40.50;;;;;;2093498;59;21419;-68
2023/09/12 12:55:20;;;;;;;4.37;2.55;;;33.70;40.50;;;;;;2273007;58;21011;-68
2023/09/12 12:57:48;;;;;;;4.97;2.72;;;33.80;40.60;;;;;;2071554;59;21360;-70
2023/09/12 13:00:16;;;;;;;4.80;2.83;;;33.80;40.60;;;;;;2293391;58;21508;-68
2023/09/12 13:02:44;;;;;;;5.85;2.92;;;33.80;40.30;;;;;;2306046;58;21020;-66
2023/09/12 13:05:30;;;;;;;4.07;2.42;;;33.80;39.90;;;;;;2242586;58;21036;-67
2023/09/12 13:07:58;;;;;;;5.22;2.75;;;33.90;39.00;;;;;;2270986;58;21848;-70
2023/09/12 13:10:25;;;;;;;3.90;2.12;;;33.90;39.80;;;;;;2239100;58;22276;-68
2023/09/12 13:12:58;;;;;;;3.97;2.42;;;33.90;40.00;;;;;;2244054;58;22082;-67
2023/09/12 13:15:33;;;;;;;3.80;2.60;;;34.00;39.90;;;;;;2058388;59;21670;-66
2023/09/12 13:17:59;;;;;;;3.90;2.30;;;34.00;39.90;;;;;;2239950;58;21088;-69
2023/09/12 13:20:28;;;;;;;4.22;2.40;;;34.00;40.00;;;;;;2225683;59;21188;-68